Latest Weather Observations for Kingfish B

IDV60801

Issued at 9:31 am EST Thursday 2 July 2015 (issued every 30 minutes, with the page automatically refreshed every 10 minutes)

About weather observations | Map of weather stations | Latest weather observations for VIC | Other Formats
Station Details ID: 400139 Name: KINGFISH B (PLATFORM) Lat: -38.60 Lon: 148.19 Height: 31.4 m
Data from the previous 72 hours. | See also: Recent months for locations in Victoria
Date/Time
EST
Temp
°C
App
Temp
°C
Dew
Point
Rel
Hum
%
Delta-T
°C
Wind Press
QNH
hPa
Press
MSL
hPa
Rain
since 9 am
mm
Dir
 
Spd
km/h
Gust
km/h
Spd
kts
Gust
kts
02/08:20am 11.7 0.7 6.7 71 2.4 WSW 54 78 29 42 1015.4 - -
02/08:10am 12.0 2.5 6.9 71 2.4 WSW 46 56 25 30 1014.9 - -
02/08:00am 12.0 3.4 6.6 69 2.6 WSW 41 54 22 29 1014.8 - -
02/07:50am 11.7 2.7 6.3 69 2.5 SW 43 48 23 26 1014.7 - -
02/07:40am 11.4 2.4 6.3 71 2.4 SW 43 50 23 27 1014.6 - -
02/07:30am 11.2 2.0 6.5 73 2.2 SW 44 54 24 29 1014.4 - -
02/07:20am 11.6 1.4 6.8 72 2.3 SW 50 59 27 32 1014.7 - -
02/07:10am 12.7 3.7 7.4 70 2.6 SW 44 72 24 39 1014.5 - -
02/07:00am 12.5 4.9 7.4 71 2.5 WSW 37 46 20 25 1014.3 - -
02/06:50am 12.1 3.6 7.1 71 2.4 SW 41 50 22 27 1014.4 - -
02/06:40am 11.8 4.4 6.9 72 2.3 SW 35 46 19 25 1014.7 - -
02/06:30am 12.7 4.4 7.8 72 2.4 SW 41 65 22 35 1014.3 - -
02/06:20am 12.8 5.3 7.8 71 2.5 WSW 37 48 20 26 1013.9 - -
02/06:10am 12.7 5.5 7.7 71 2.4 SW 35 43 19 23 1013.9 - -
02/06:00am 12.7 5.8 7.4 70 2.6 SW 33 43 18 23 1013.8 - -
02/05:50am 12.7 4.3 7.5 70 2.5 SW 41 48 22 26 1013.6 - -
02/05:40am 12.6 5.7 7.3 70 2.6 SW 33 48 18 26 1013.8 - -
02/05:30am 12.3 4.6 7.0 70 2.5 SW 37 43 20 23 1013.6 - -
02/05:20am 12.0 3.9 6.8 70 2.5 SW 39 46 21 25 1013.5 - -
02/05:10am 11.6 3.8 6.7 72 2.3 SW 37 44 20 24 1013.5 - -
02/05:00am 11.2 3.4 6.7 74 2.1 SW 37 46 20 25 1013.6 - -
02/04:50am 11.3 2.2 6.9 74 2.1 SW 44 70 24 38 1013.9 - -
02/04:40am 12.1 4.5 7.6 74 2.2 WSW 37 63 20 34 1013.8 - -
02/04:30am 12.0 4.3 7.3 73 2.3 WSW 37 46 20 25 1013.8 - -
02/04:20am 11.9 3.0 7.0 72 2.3 WSW 43 52 23 28 1013.7 - -
02/04:10am 12.7 2.9 6.9 68 2.8 SW 48 65 26 35 1013.6 - -
02/04:00am 13.6 3.4 7.1 65 3.2 W 50 63 27 34 1013.3 - -
02/03:50am 13.7 3.8 6.8 63 3.3 W 48 59 26 32 1013.1 - -
02/03:40am 13.9 4.4 6.8 62 3.4 W 46 59 25 32 1013.2 - -
02/03:30am 14.1 5.2 6.9 62 3.5 W 43 52 23 28 1013.2 - -
02/03:20am 14.2 4.7 6.9 61 3.6 W 46 63 25 34 1013.1 - -
02/03:10am 14.1 5.2 6.8 61 3.5 W 43 52 23 28 1013.2 - -
02/03:00am 14.0 3.7 6.6 61 3.6 W 50 67 27 36 1013.2 - -
02/02:50am 14.3 4.8 6.8 60 3.6 W 46 61 25 33 1013.4 - -
02/02:40am 14.4 4.9 6.7 60 3.7 WNW 46 57 25 31 1013.4 - -
02/02:30am 14.5 5.0 6.6 59 3.8 WNW 46 59 25 32 1013.4 - -
02/02:20am 14.4 3.7 6.3 58 3.9 W 52 61 28 33 1013.4 - -
02/02:10am 14.4 4.1 6.3 58 3.9 W 50 61 27 33 1013.6 - -
02/02:00am 14.5 3.7 6.2 57 4.0 WNW 52 61 28 33 1013.8 - -
02/01:50am 14.4 4.0 6.1 57 4.0 WNW 50 63 27 34 1013.9 - -
02/01:40am 14.4 3.6 6.2 58 3.9 W 52 63 28 34 1014.1 - -
02/01:30am 14.3 4.0 6.3 58 3.8 W 50 59 27 32 1014.3 - -
02/01:20am 14.2 3.4 6.1 58 3.9 W 52 61 28 33 1014.2 - -
02/01:10am 14.1 3.7 6.0 58 3.9 W 50 63 27 34 1014.4 - -
02/01:00am 14.0 3.2 5.9 58 3.9 W 52 63 28 34 1014.5 - -
02/12:50am 14.0 3.5 5.8 57 3.9 W 50 59 27 32 1014.7 - -
02/12:40am 13.9 3.1 5.8 58 3.8 W 52 61 28 33 1014.6 - -
02/12:30am 13.9 2.6 5.6 57 3.9 W 54 63 29 34 1014.6 - -
02/12:20am 13.9 2.3 5.6 57 3.9 W 56 63 30 34 1014.7 - -
02/12:10am 14.0 3.5 5.8 57 3.9 W 50 63 27 34 1015.0 - -
02/12:00am 14.0 4.4 6.1 59 3.8 W 46 57 25 31 1015.2 - -
 
Date/Time
EST
Temp
°C
App
Temp
°C
Dew
Point
Rel
Hum
%
Delta-T
°C
Wind Press
QNH
hPa
Press
MSL
hPa
Rain
since 9 am
mm
Dir
 
Spd
km/h
Gust
km/h
Spd
kts
Gust
kts
01/11:40pm 14.3 5.2 6.1 58 3.9 W 43 56 23 30 1015.7 - -
01/11:30pm 14.2 4.9 5.9 57 4.0 WNW 44 50 24 27 1015.8 - -
01/11:20pm 14.2 5.1 6.0 58 3.9 WNW 43 50 23 27 1015.8 - -
01/11:10pm 14.2 5.1 5.7 56 4.0 WNW 43 52 23 28 1016.0 - -
01/11:00pm 14.3 5.1 5.6 56 4.1 WNW 43 52 23 28 1016.1 - -
01/10:50pm 14.4 4.6 5.2 54 4.3 WNW 46 56 25 30 1016.1 - -
01/10:40pm 14.4 5.2 5.5 55 4.2 WNW 43 52 23 28 1016.2 - -
01/10:30pm 14.5 5.1 5.2 53 4.4 WNW 44 52 24 28 1016.3 - -
01/10:20pm 14.5 5.1 5.3 54 4.3 WNW 44 54 24 29 1016.3 - -
01/10:10pm 14.6 5.7 5.2 53 4.4 WNW 41 52 22 28 1016.5 - -
01/10:00pm 14.7 5.8 5.2 53 4.5 WNW 41 48 22 26 1016.8 - -
01/09:50pm 14.7 5.8 4.9 52 4.6 WNW 41 54 22 29 1016.9 - -
01/09:40pm 14.7 5.4 5.0 52 4.6 WNW 43 52 23 28 1017.1 - -
01/09:30pm 14.6 5.8 5.5 54 4.3 WNW 41 48 22 26 1017.4 - -
01/09:20pm 14.4 6.0 5.7 56 4.1 WNW 39 48 21 26 1017.5 - -
01/09:10pm 14.4 5.2 5.4 54 4.2 WNW 43 50 23 27 1017.7 - -
01/09:00pm 14.5 5.8 5.9 56 4.1 WNW 41 50 22 27 1017.9 - -
01/08:50pm 14.4 5.1 5.2 54 4.3 WNW 43 50 23 27 1018.0 - -
01/08:40pm 14.6 5.3 5.1 53 4.5 WNW 43 52 23 28 1018.1 - -
01/08:30pm 14.7 5.4 4.9 52 4.6 WNW 43 56 23 30 1018.3 - -
01/08:20pm 14.6 5.0 4.3 50 4.8 WNW 44 54 24 29 1018.4 - -
01/08:10pm 14.6 5.0 4.5 50 4.7 WNW 44 54 24 29 1018.4 - -
01/08:00pm 14.5 4.5 4.1 49 4.8 WNW 46 57 25 31 1018.5 - -
01/07:50pm 14.5 4.5 4.5 51 4.6 WNW 46 56 25 30 1018.7 - -
01/07:40pm 14.4 4.4 4.3 50 4.7 WNW 46 54 25 29 1018.8 - -
01/07:30pm 14.3 4.7 4.5 51 4.5 W 44 54 24 29 1018.9 - -
01/07:20pm 14.2 5.3 5.1 54 4.3 WNW 41 52 22 28 1019.0 - -
01/07:10pm 14.3 5.4 5.0 53 4.4 W 41 52 22 28 1019.0 - -
01/07:00pm 14.4 5.9 5.1 53 4.4 WNW 39 46 21 25 1019.2 - -
01/06:50pm 14.4 6.3 5.2 54 4.3 WNW 37 48 20 26 1019.2 - -
01/06:40pm 14.1 5.5 4.8 53 4.3 W 39 48 21 26 1019.3 - -
01/06:30pm 14.0 5.8 4.7 53 4.3 W 37 46 20 25 1019.5 - -
01/06:20pm 14.0 5.0 4.5 52 4.4 W 41 52 22 28 1019.5 - -
01/06:10pm 13.9 4.9 4.5 53 4.3 W 41 50 22 27 1019.5 - -
01/06:00pm 13.8 4.8 4.4 53 4.3 W 41 48 22 26 1019.7 - -
01/05:50pm 13.8 5.1 4.0 51 4.5 W 39 46 21 25 1019.7 - -
01/05:40pm 13.6 4.4 3.7 51 4.5 W 41 46 22 25 1019.8 - -
01/05:30pm 13.6 4.9 3.9 52 4.4 W 39 46 21 25 1020.0 - -
01/05:20pm 13.6 5.2 3.8 51 4.4 W 37 44 20 24 1020.0 - -
01/05:10pm 13.6 4.8 3.7 51 4.5 W 39 46 21 25 1019.9 - -
01/05:00pm 13.6 4.8 3.5 50 4.5 W 39 48 21 26 1020.1 - -
01/04:50pm 13.6 4.5 3.9 52 4.4 W 41 48 22 26 1020.2 - -
01/04:40pm 13.5 4.7 3.8 52 4.4 W 39 48 21 26 1020.2 - -
01/04:30pm 13.4 5.0 3.8 52 4.3 W 37 44 20 24 1020.3 - -
01/04:20pm 13.4 4.5 3.2 50 4.6 W 39 44 21 24 1020.4 - -
01/04:10pm 13.4 5.4 3.6 51 4.4 W 35 43 19 23 1020.3 - -
01/04:00pm 13.4 5.0 3.6 51 4.4 W 37 43 20 23 1020.4 - -
01/03:50pm 13.4 5.3 3.3 50 4.5 W 35 43 19 23 1020.4 - -
01/03:40pm 13.4 4.9 3.1 49 4.6 WSW 37 43 20 23 1020.5 - -
01/03:30pm 13.5 5.0 3.1 49 4.6 W 37 44 20 24 1020.6 - -
01/03:20pm 13.6 4.7 3.3 49 4.6 WSW 39 46 21 25 1020.6 - -
01/03:10pm 13.8 4.9 3.2 48 4.8 WSW 39 48 21 26 1020.7 - -
01/03:00pm 13.8 5.3 3.3 49 4.7 WSW 37 44 20 24 1020.7 - -
01/02:50pm 13.7 5.6 3.5 50 4.6 W 35 43 19 23 1020.7 - -
01/02:40pm 13.6 5.6 3.6 51 4.5 W 35 41 19 22 1020.8 - -
01/02:30pm 13.6 5.6 4.0 52 4.4 WSW 35 41 19 22 1020.8 - -
01/02:20pm 13.6 6.0 4.0 52 4.4 W 33 39 18 21 1020.9 - -
01/02:10pm 13.6 6.1 4.3 53 4.3 WSW 33 41 18 22 1021.0 - -
01/02:00pm 13.5 5.9 4.0 52 4.3 WSW 33 41 18 22 1021.1 - -
01/01:50pm 13.6 5.2 3.8 51 4.4 WSW 37 43 20 23 1021.0 - -
01/01:40pm 13.7 5.0 4.2 52 4.3 WSW 39 46 21 25 1020.9 - -
01/01:30pm 13.7 5.1 4.6 54 4.2 WSW 39 46 21 25 1021.1 - -
01/01:20pm 13.6 5.0 4.6 54 4.2 WSW 39 50 21 27 1021.2 - -
01/01:10pm 13.7 5.1 4.6 54 4.2 WSW 39 44 21 24 1021.4 - -
01/01:00pm 13.8 6.0 5.1 55 4.1 WSW 35 41 19 22 1021.6 - -
01/12:50pm 13.7 6.3 5.0 55 4.1 WSW 33 43 18 23 1021.7 - -
01/12:40pm 14.0 6.7 5.3 55 4.1 WSW 33 39 18 21 1021.9 - -
01/12:30pm 14.0 6.8 6.0 58 3.8 WSW 33 41 18 22 1022.0 - -
01/12:20pm 13.9 7.5 6.9 62 3.4 WSW 30 35 16 19 1022.1 - -
01/12:10pm 14.2 9.5 7.9 66 3.1 WSW 22 32 12 17 1022.4 - -
01/12:00pm 14.1 9.0 7.8 66 3.1 WSW 24 30 13 16 1022.6 - -
01/11:50am 14.1 8.6 7.7 65 3.2 W 26 30 14 16 1022.8 - -
01/11:40am 14.1 8.7 7.9 66 3.1 WSW 26 33 14 18 1022.9 - -
01/11:30am 13.9 8.5 7.9 67 3.0 W 26 32 14 17 1023.1 - -
01/11:20am 14.1 9.1 8.1 67 3.0 W 24 30 13 16 1023.3 - -
01/11:10am 14.0 8.6 7.8 66 3.1 W 26 32 14 17 1023.5 - -
01/11:00am 14.0 8.6 7.9 66 3.0 WSW 26 32 14 17 1023.6 - -
01/10:50am 13.9 8.5 8.0 67 2.9 WSW 26 32 14 17 1023.8 - -
01/10:40am 14.0 9.0 8.2 68 2.9 W 24 32 13 17 1024.1 - -
01/10:30am 14.0 9.1 8.3 68 2.9 WSW 24 32 13 17 1024.3 - -
01/10:20am 14.1 8.4 8.5 69 2.8 W 28 32 15 17 1024.4 - -
01/10:10am 14.2 8.9 8.5 68 2.9 W 26 32 14 17 1024.7 - -
01/10:00am 14.2 9.3 8.3 67 3.0 W 24 28 13 15 1024.9 - -
01/09:50am 14.5 9.6 8.4 67 3.1 WSW 24 28 13 15 1024.9 - -
01/09:40am 14.5 10.0 8.5 67 3.0 WSW 22 26 12 14 1025.1 - -
01/09:20am 14.0 9.9 8.5 69 2.8 W 20 24 11 13 1025.3 - -
01/09:10am 14.1 9.7 8.8 70 2.7 W 22 26 12 14 1025.4 - -
01/09:00am 14.1 10.0 8.7 70 2.7 W 20 26 11 14 1025.3 - -
01/08:50am 14.2 10.1 8.6 69 2.8 W 20 24 11 13 1025.4 - -
01/08:40am 14.0 9.8 8.3 68 2.9 WSW 20 24 11 13 1025.3 - -
01/08:30am 14.2 10.1 8.5 68 2.9 WSW 20 24 11 13 1025.4 - -
01/08:20am 14.1 10.6 8.8 70 2.7 WSW 17 26 9 14 1025.4 - -
01/08:10am 13.8 10.7 9.0 73 2.4 WSW 15 19 8 10 1025.5 - -
01/08:00am 13.4 10.3 9.0 75 2.2 WSW 15 20 8 11 1025.4 - -
01/07:50am 13.5 10.1 9.1 75 2.2 W 17 20 9 11 1025.5 - -
01/07:40am 13.3 9.5 8.9 74 2.2 WSW 19 26 10 14 1025.5 - -
01/07:30am 13.4 9.0 9.0 75 2.2 WSW 22 26 12 14 1025.5 - -
01/07:20am 13.2 9.1 8.8 74 2.2 WSW 20 26 11 14 1025.5 - -
01/07:10am 13.1 9.2 8.7 74 2.2 WSW 19 22 10 12 1025.6 - -
01/07:00am 13.0 8.9 8.6 74 2.2 WSW 20 24 11 13 1025.6 - -
01/06:50am 13.0 8.9 8.6 74 2.2 WSW 20 24 11 13 1025.5 - -
01/06:40am 12.9 8.0 8.4 74 2.2 WSW 24 30 13 16 1025.5 - -
01/06:30am 13.0 8.1 8.4 73 2.3 WSW 24 30 13 16 1025.6 - -
01/06:20am 12.9 8.9 8.3 73 2.3 WSW 19 22 10 12 1025.6 - -
01/06:10am 12.8 8.6 8.2 73 2.3 WSW 20 24 11 13 1025.4 - -
01/06:00am 13.0 8.5 8.5 74 2.2 WSW 22 28 12 15 1025.2 - -
01/05:50am 13.0 8.5 8.5 74 2.2 WSW 22 26 12 14 1025.2 - -
01/05:40am 12.9 8.7 8.3 73 2.3 WSW 20 24 11 13 1025.1 - -
01/05:30am 12.8 8.6 8.1 73 2.3 WSW 20 26 11 14 1025.1 - -
01/05:20am 12.8 8.2 8.0 72 2.4 WSW 22 26 12 14 1025.0 - -
01/05:10am 12.9 7.9 7.9 71 2.5 WSW 24 28 13 15 1025.0 - -
01/05:00am 12.8 8.1 7.6 70 2.5 WSW 22 26 12 14 1025.0 - -
01/04:50am 12.7 7.5 7.2 69 2.7 SW 24 28 13 15 1024.7 - -
01/04:40am 12.6 7.7 7.0 68 2.7 SW 22 28 12 15 1024.7 - -
01/04:30am 12.5 7.3 7.2 70 2.6 SW 24 28 13 15 1024.6 - -
01/04:20am 12.4 7.6 7.4 71 2.4 SW 22 26 12 14 1024.7 - -
01/04:10am 12.5 7.8 7.8 73 2.3 SW 22 28 12 15 1024.6 - -
01/04:00am 12.4 7.8 8.1 75 2.1 SW 22 26 12 14 1024.6 - -
01/03:50am 12.3 7.7 8.2 76 2.0 SW 22 28 12 15 1024.6 - -
01/03:40am 12.2 7.3 8.4 77 1.9 SW 24 30 13 16 1024.6 - -
01/03:30am 12.2 7.7 8.5 78 1.8 SW 22 26 12 14 1024.6 - -
01/03:20am 12.3 7.8 8.7 79 1.8 SW 22 26 12 14 1024.6 - -
01/03:10am 12.4 7.6 8.7 78 1.8 SW 24 30 13 16 1024.6 - -
01/03:00am 12.3 7.8 8.6 78 1.8 SW 22 28 12 15 1024.6 - -
01/02:50am 12.3 7.4 8.6 78 1.8 SW 24 30 13 16 1024.7 - -
01/02:40am 12.4 7.2 8.7 78 1.8 SW 26 30 14 16 1024.7 - -
01/02:30am 12.5 7.3 8.8 78 1.9 SW 26 30 14 16 1024.8 - -
01/02:20am 12.5 8.1 8.8 78 1.9 WSW 22 26 12 14 1024.9 - -
01/02:10am 12.3 7.4 8.6 78 1.8 WSW 24 28 13 15 1024.9 - -
01/02:00am 12.3 7.4 8.5 77 1.9 SW 24 28 13 15 1024.9 - -
01/01:50am 12.4 7.5 8.6 77 1.9 SW 24 30 13 16 1025.0 - -
01/01:40am 12.5 7.2 8.4 76 2.0 SW 26 30 14 16 1025.0 - -
01/01:30am 12.5 7.6 8.3 75 2.1 SW 24 30 13 16 1025.0 - -
01/01:20am 12.5 7.6 8.3 75 2.1 WSW 24 30 13 16 1025.1 - -
01/01:10am 12.4 6.3 8.2 75 2.1 WSW 30 33 16 18 1025.0 - -
01/01:00am 12.5 6.4 8.4 76 2.0 SW 30 33 16 18 1025.0 - -
01/12:50am 12.6 6.9 8.4 75 2.1 SW 28 33 15 18 1025.1 - -
01/12:40am 12.6 6.9 8.3 75 2.1 SW 28 33 15 18 1025.2 - -
01/12:30am 12.6 6.9 8.2 74 2.2 SW 28 32 15 17 1025.2 - -
01/12:20am 12.6 6.9 8.2 74 2.2 SW 28 32 15 17 1025.3 - -
01/12:10am 12.6 7.3 8.3 75 2.1 SW 26 32 14 17 1025.4 - -
01/12:00am 12.6 6.9 8.3 75 2.1 SW 28 32 15 17 1025.3 - -
 
Date/Time
EST
Temp
°C
App
Temp
°C
Dew
Point
Rel
Hum
%
Delta-T
°C
Wind Press
QNH
hPa
Press
MSL
hPa
Rain
since 9 am
mm
Dir
 
Spd
km/h
Gust
km/h
Spd
kts
Gust
kts
30/11:50pm 12.6 6.5 8.2 74 2.2 SW 30 33 16 18 1025.3 - -
30/11:40pm 12.7 6.6 8.3 74 2.2 SW 30 35 16 19 1025.4 - -
30/11:30pm 12.7 6.3 8.4 75 2.1 SW 32 35 17 19 1025.4 - -
30/11:20pm 12.8 6.4 8.6 75 2.1 SW 32 35 17 19 1025.4 - -
30/11:10pm 12.7 6.3 8.7 76 2.0 SW 32 35 17 19 1025.5 - -
30/11:00pm 12.7 6.7 8.7 76 2.0 SW 30 35 16 19 1025.5 - -
30/10:50pm 12.8 6.5 8.9 77 2.0 SW 32 37 17 20 1025.4 - -
30/10:40pm 12.9 7.0 8.9 76 2.0 SW 30 37 16 20 1025.5 - -
30/10:30pm 12.8 6.4 8.7 76 2.1 SW 32 35 17 19 1025.4 - -
30/10:20pm 13.0 6.5 8.8 75 2.1 SW 33 37 18 20 1025.4 - -
30/10:10pm 13.0 6.4 8.7 75 2.2 SW 33 39 18 21 1025.4 - -
30/10:00pm 13.1 6.5 8.7 74 2.2 SW 33 37 18 20 1025.5 - -
30/09:50pm 12.9 5.9 8.5 74 2.2 SW 35 39 19 21 1025.4 - -
30/09:40pm 13.0 5.6 8.4 73 2.3 SW 37 41 20 22 1025.4 - -
30/09:30pm 13.1 5.7 8.5 73 2.3 SW 37 43 20 23 1025.3 - -
30/09:20pm 13.2 6.2 8.5 73 2.3 SW 35 41 19 22 1025.3 - -
30/09:10pm 13.2 6.8 8.5 73 2.3 SW 32 35 17 19 1025.4 - -
30/09:00pm 13.3 6.9 8.6 73 2.4 SW 32 35 17 19 1025.3 - -
30/08:50pm 13.3 7.3 8.6 73 2.4 SW 30 35 16 19 1025.4 - -
30/08:40pm 13.3 7.3 8.5 72 2.4 SW 30 35 16 19 1025.5 - -
30/08:30pm 13.3 7.7 8.6 73 2.4 SW 28 32 15 17 1025.7 - -
30/08:20pm 13.3 8.1 8.7 73 2.3 WSW 26 28 14 15 1025.8 - -
30/08:10pm 13.3 8.1 8.7 73 2.3 SW 26 28 14 15 1025.8 - -
30/08:00pm 13.3 8.5 8.7 73 2.3 SW 24 28 13 15 1025.8 - -
30/07:50pm 13.4 9.0 8.8 74 2.3 SW 22 28 12 15 1025.9 - -
30/07:40pm 13.4 9.4 8.9 74 2.3 SW 20 26 11 14 1026.0 - -
30/07:30pm 13.4 9.6 8.9 74 2.3 SW 19 22 10 12 1026.0 - -
30/07:20pm 13.4 9.4 8.9 74 2.3 SW 20 24 11 13 1026.0 - -
30/07:10pm 13.5 9.7 9.0 74 2.3 SW 19 24 10 13 1026.1 - -
30/07:00pm 13.5 9.7 8.9 74 2.3 SW 19 22 10 12 1026.1 - -
30/06:50pm 13.4 9.9 8.8 74 2.3 SW 17 20 9 11 1026.2 - -
30/06:40pm 13.4 9.5 8.8 74 2.3 SW 19 22 10 12 1026.2 - -
30/06:30pm 13.2 8.7 8.6 73 2.3 SW 22 26 12 14 1026.1 - -
30/06:20pm 13.0 7.7 8.3 73 2.3 SW 26 30 14 16 1026.0 - -
30/06:10pm 13.0 7.7 8.3 73 2.3 SW 26 32 14 17 1025.8 - -
30/06:00pm 13.1 7.0 8.3 72 2.4 SW 30 33 16 18 1025.9 - -
30/05:40pm 13.1 7.8 8.4 73 2.3 SW 26 32 14 17 1025.9 - -
30/05:30pm 13.1 7.8 8.4 73 2.3 SW 26 30 14 16 1025.7 - -
30/05:20pm 13.2 7.9 8.5 73 2.3 SW 26 32 14 17 1025.7 - -
30/05:10pm 13.2 8.3 8.5 73 2.3 SW 24 28 13 15 1025.6 - -
30/05:00pm 13.2 8.7 8.5 73 2.3 SW 22 26 12 14 1025.6 - -
30/04:50pm 13.2 8.7 8.4 72 2.4 SW 22 26 12 14 1025.6 - -
30/04:40pm 13.1 8.5 8.3 72 2.4 SW 22 24 12 13 1025.6 - -
30/04:30pm 13.1 8.5 8.3 72 2.4 SW 22 26 12 14 1025.6 - -
30/04:20pm 13.2 8.7 8.4 72 2.4 SW 22 26 12 14 1025.6 - -
30/04:10pm 13.3 8.8 8.5 72 2.4 SSW 22 26 12 14 1025.7 - -
30/04:00pm 13.2 9.0 8.3 72 2.4 SSW 20 24 11 13 1025.8 - -
30/03:50pm 13.2 9.6 8.5 73 2.3 SSW 17 22 9 12 1025.5 - -
30/03:40pm 13.2 9.6 8.5 73 2.3 SW 17 28 9 15 1025.4 - -
30/03:30pm 13.1 10.3 8.4 73 2.3 SSW 13 19 7 10 1025.5 - -
30/03:20pm 13.3 10.1 8.5 72 2.4 SW 15 20 8 11 1025.3 - -
30/03:10pm 13.4 9.8 8.5 72 2.5 SSW 17 22 9 12 1025.4 - -
30/03:00pm 13.6 9.5 8.5 71 2.6 SSW 20 24 11 13 1025.3 - -
30/02:50pm 13.8 9.6 8.4 70 2.7 SW 20 28 11 15 1025.3 - -
30/02:40pm 13.9 10.3 8.3 69 2.8 SW 17 19 9 10 1025.1 - -
30/02:30pm 13.9 11.0 8.1 68 2.9 WSW 13 19 7 10 1025.1 - -
30/02:20pm 14.0 11.0 7.9 66 3.0 WSW 13 15 7 8 1025.1 - -
30/02:10pm 14.0 11.4 7.9 66 3.0 WSW 11 17 6 9 1025.1 - -
30/02:00pm 14.0 11.4 7.8 66 3.1 WSW 11 15 6 8 1025.1 - -
30/01:50pm 13.9 11.3 7.7 66 3.1 WSW 11 17 6 9 1025.2 - -
30/01:40pm 13.9 11.2 7.3 64 3.2 WSW 11 17 6 9 1025.2 - -
30/01:30pm 13.9 11.1 7.0 63 3.4 WSW 11 15 6 8 1025.3 - -
30/01:20pm 13.8 11.0 7.1 64 3.3 WSW 11 19 6 10 1025.2 - -
30/01:10pm 13.9 11.1 6.8 62 3.4 WSW 11 15 6 8 1025.3 - -
30/01:00pm 13.9 11.5 6.9 62 3.4 WSW 9 13 5 7 1025.4 - -
30/12:50pm 14.0 11.6 6.8 62 3.5 WSW 9 13 5 7 1025.5 - -
30/12:40pm 14.0 11.5 6.6 61 3.6 WSW 9 11 5 6 1025.6 - -
30/12:30pm 14.0 11.9 6.5 60 3.6 WSW 7 13 4 7 1025.6 - -
30/12:20pm 14.1 11.6 6.6 60 3.6 WSW 9 13 5 7 1025.7 - -
30/12:10pm 14.0 11.5 6.4 60 3.7 WSW 9 13 5 7 1025.8 - -
30/12:00pm 14.0 11.4 6.3 60 3.7 W 9 13 5 7 1026.0 - -
30/11:50am 13.9 11.3 6.1 59 3.7 WSW 9 15 5 8 1026.1 - -
30/11:40am 13.9 11.3 6.2 59 3.7 WSW 9 13 5 7 1026.2 - -
30/11:30am 13.9 10.9 6.1 59 3.7 WSW 11 15 6 8 1026.4 - -
30/11:20am 13.9 11.3 6.1 59 3.7 WSW 9 15 5 8 1026.5 - -
30/11:10am 13.9 11.3 6.2 59 3.7 W 9 15 5 8 1026.6 - -
30/11:00am 13.8 10.8 6.2 60 3.6 WSW 11 13 6 7 1026.8 - -
30/10:50am 13.3 11.0 5.7 60 3.6 WSW 7 13 4 7 1026.9 - -
30/10:40am 13.3 11.9 5.5 59 3.7 WSW 2 7 1 4 1027.1 - -
30/10:30am 13.6 11.5 6.0 60 3.6 WSW 6 13 3 7 1027.3 - -
30/10:20am 13.6 10.3 6.2 61 3.5 WSW 13 17 7 9 1027.4 - -
30/10:10am 13.6 10.3 6.5 62 3.4 WSW 13 19 7 10 1027.5 - -
30/10:00am 13.5 10.2 6.6 63 3.3 WSW 13 22 7 12 1027.6 - -
30/09:50am 13.4 10.1 6.2 61 3.4 WSW 13 19 7 10 1027.7 - -
30/09:40am 13.2 10.6 6.2 62 3.3 WSW 9 13 5 7 1027.9 - -
30/09:30am 13.1 10.5 6.2 63 3.3 WSW 9 17 5 9 1027.9 - -
30/09:20am 12.9 10.5 5.2 59 3.6 WSW 7 15 4 8 1028.0 - -
30/09:10am 12.8 10.5 4.9 58 3.6 SW 6 9 3 5 1027.9 - -
30/09:00am 12.8 10.4 5.2 60 3.5 SW 7 11 4 6 1027.9 - -
30/08:50am 12.7 10.3 5.2 60 3.5 SW 7 9 4 5 1027.8 - -
30/08:40am 12.6 10.4 5.3 61 3.4 SW 6 7 3 4 1027.9 - -
30/08:30am 12.5 10.7 5.2 61 3.4 SW 4 7 2 4 1027.8 - -
30/08:20am 12.4 10.6 5.2 61 3.3 SW 4 7 2 4 1027.8 - -
30/08:10am 12.5 11.0 5.2 61 3.4 SW 2 4 1 2 1028.0 - -
30/08:00am 12.4 10.5 5.1 61 3.4 SW 4 9 2 5 1028.0 - -
30/07:50am 12.3 10.5 5.2 62 3.3 SW 4 9 2 5 1028.0 - -
30/07:40am 12.4 10.2 5.3 62 3.3 SW 6 15 3 8 1028.0 - -
30/07:30am 12.6 10.4 5.4 61 3.4 WSW 6 9 3 5 1028.0 - -
30/07:20am 12.8 10.6 5.5 61 3.4 WSW 6 7 3 4 1027.9 - -
30/07:10am 12.9 10.6 5.7 61 3.4 WSW 7 11 4 6 1027.9 - -
30/07:00am 13.1 11.0 5.7 61 3.5 WSW 6 11 3 6 1027.9 - -
30/06:50am 13.1 10.8 5.8 61 3.4 W 7 9 4 5 1028.0 - -
30/06:40am 12.8 10.7 5.6 61 3.4 WSW 6 9 3 5 1027.9 - -
30/06:30am 13.0 11.7 5.8 61 3.4 W 2 7 1 4 1027.9 - -
30/06:20am 12.7 11.0 5.9 63 3.2 WSW 4 6 2 3 1027.9 - -
30/06:10am 12.8 11.5 5.8 62 3.3 SW 2 9 1 5 1027.8 - -
30/06:00am 12.9 12.0 6.0 63 3.3 CALM 0 0 0 0 1027.8 - -
30/05:50am 12.7 11.4 5.9 63 3.2 SW 2 6 1 3 1027.8 - -
30/05:40am 12.9 11.7 6.6 65 3.0 SW 2 4 1 2 1027.8 - -
30/05:30am 13.3 12.4 7.7 69 2.8 NW 2 7 1 4 1027.6 - -
30/05:20am 13.2 11.5 7.6 69 2.7 NW 6 9 3 5 1027.6 - -
30/05:10am 13.3 11.6 7.6 68 2.8 NW 6 7 3 4 1027.6 - -
30/05:00am 13.2 11.9 7.6 69 2.7 NW 4 7 2 4 1027.6 - -
30/04:50am 13.4 11.7 7.7 68 2.8 NW 6 7 3 4 1027.5 - -
30/04:40am 13.3 12.0 7.7 69 2.8 WNW 4 7 2 4 1027.5 - -
30/04:30am 13.2 11.5 7.4 68 2.8 NW 6 9 3 5 1027.5 - -
30/04:20am 13.1 11.7 7.3 68 2.8 NW 4 7 2 4 1027.5 - -
30/04:10am 13.3 11.9 7.3 67 2.9 WNW 4 7 2 4 1027.6 - -
30/04:00am 13.3 11.5 7.2 66 3.0 WNW 6 7 3 4 1027.6 - -
30/03:50am 13.1 11.1 7.1 67 2.9 WNW 7 9 4 5 1027.5 - -
30/03:40am 13.0 11.0 7.1 67 2.9 NW 7 9 4 5 1027.5 - -
30/03:30am 13.0 11.0 7.2 68 2.8 NW 7 9 4 5 1027.6 - -
30/03:20am 13.0 11.1 7.4 69 2.7 NW 7 11 4 6 1027.7 - -
30/03:10am 12.9 10.5 7.1 68 2.8 NW 9 13 5 7 1027.7 - -
30/03:00am 13.0 10.3 7.2 68 2.8 NW 11 13 6 7 1027.8 - -
30/02:50am 13.3 10.6 7.3 67 2.9 NW 11 15 6 8 1027.9 - -
30/02:30am 13.6 10.6 7.6 67 3.0 WNW 13 15 7 8 1027.9 - -
30/02:20am 13.6 10.6 7.5 66 3.0 WNW 13 15 7 8 1027.9 - -
30/02:10am 13.6 10.5 7.4 66 3.0 WNW 13 15 7 8 1027.9 - -
30/02:00am 13.9 11.3 7.6 66 3.1 WNW 11 15 6 8 1028.0 - -
30/01:50am 14.1 11.5 7.7 65 3.2 WNW 11 15 6 8 1028.0 - -
30/01:40am 14.0 11.4 7.6 65 3.2 WNW 11 15 6 8 1028.1 - -
30/01:30am 13.7 11.0 7.4 65 3.1 WNW 11 15 6 8 1028.1 - -
30/01:20am 13.9 11.3 7.6 66 3.1 WNW 11 15 6 8 1028.1 - -
30/01:10am 14.2 11.6 7.8 65 3.2 WNW 11 15 6 8 1028.2 - -
30/01:00am 14.3 11.7 7.6 64 3.3 WNW 11 15 6 8 1028.2 - -
30/12:50am 14.3 12.0 7.6 64 3.3 WNW 9 13 5 7 1028.3 - -
30/12:40am 14.3 11.6 7.5 63 3.4 WNW 11 15 6 8 1028.2 - -
30/12:30am 14.5 11.8 7.5 63 3.5 WNW 11 15 6 8 1028.2 - -
30/12:20am 14.4 12.1 7.4 63 3.4 WNW 9 15 5 8 1028.3 - -
30/12:10am 14.4 12.5 6.7 60 3.7 WNW 6 9 3 5 1028.4 - -
30/12:00am 14.2 12.3 6.5 60 3.7 W 6 9 3 5 1028.5 - -
 
Date/Time
EST
Temp
°C
App
Temp
°C
Dew
Point
Rel
Hum
%
Delta-T
°C
Wind Press
QNH
hPa
Press
MSL
hPa
Rain
since 9 am
mm
Dir
 
Spd
km/h
Gust
km/h
Spd
kts
Gust
kts
29/11:50pm 14.3 11.8 6.7 60 3.7 W 9 13 5 7 1028.5 - -
29/11:40pm 14.3 12.3 6.9 61 3.6 WNW 7 11 4 6 1028.6 - -
29/11:30pm 14.2 12.2 6.9 61 3.6 W 7 13 4 7 1028.7 - -
29/11:20pm 14.3 11.5 7.1 62 3.5 W 11 15 6 8 1028.7 - -
29/11:10pm 14.0 11.7 7.3 64 3.3 W 9 13 5 7 1028.8 - -
29/11:00pm 13.7 11.7 7.1 64 3.2 W 7 11 4 6 1028.9 - -
29/10:50pm 13.8 12.0 7.1 64 3.3 W 6 11 3 6 1028.9 - -
29/10:40pm 13.6 11.5 6.8 63 3.3 WSW 7 17 4 9 1028.9 - -
29/10:30pm 13.7 11.8 6.5 62 3.5 WSW 6 13 3 7 1029.0 - -
29/10:20pm 14.2 11.8 7.1 62 3.5 W 9 15 5 8 1029.0 - -
29/10:10pm 13.9 11.9 7.0 63 3.4 W 7 13 4 7 1029.0 - -
29/10:00pm 14.0 12.0 7.0 62 3.4 W 7 15 4 8 1029.0 - -
29/09:50pm 14.0 10.9 7.4 64 3.2 W 13 17 7 9 1029.0 - -
29/09:40pm 14.2 12.3 7.4 63 3.3 W 7 15 4 8 1029.0 - -
29/09:30pm 14.1 11.8 7.6 65 3.2 W 9 13 5 7 1029.1 - -
29/09:20pm 13.9 11.3 7.6 66 3.1 W 11 17 6 9 1029.1 - -
29/09:10pm 13.8 11.6 7.8 67 3.0 W 9 15 5 8 1029.2 - -
29/09:00pm 13.7 11.9 7.8 67 2.9 WSW 7 11 4 6 1029.4 - -
29/08:50pm 13.7 11.9 8.0 68 2.8 WSW 7 13 4 7 1029.4 - -
29/08:40pm 13.5 11.8 8.2 70 2.6 WSW 7 11 4 6 1029.6 - -
29/08:30pm 13.3 11.5 8.0 70 2.6 WSW 7 11 4 6 1029.7 - -
29/08:20pm 13.2 11.5 7.7 69 2.7 WSW 6 9 3 5 1029.7 - -
29/08:10pm 13.3 11.5 7.8 69 2.7 WSW 7 9 4 5 1029.8 - -
29/08:00pm 13.3 11.1 7.8 69 2.7 WSW 9 11 5 6 1029.8 - -
29/07:50pm 13.2 11.0 7.9 70 2.6 WSW 9 13 5 7 1029.9 - -
29/07:40pm 13.2 11.0 7.9 70 2.6 SW 9 13 5 7 1029.9 - -
29/07:30pm 13.1 10.9 7.8 70 2.6 WSW 9 13 5 7 1030.0 - -
29/07:20pm 13.2 11.0 7.8 70 2.7 WSW 9 13 5 7 1030.1 - -
29/07:00pm 12.9 11.2 7.4 69 2.7 SW 6 7 3 4 1030.2 - -
29/06:50pm 13.2 11.3 7.5 68 2.8 SW 7 13 4 7 1030.2 - -
29/06:40pm 13.3 11.1 7.7 69 2.8 SW 9 17 5 9 1030.1 - -
29/06:30pm 13.3 10.7 7.6 68 2.8 SW 11 17 6 9 1030.0 - -
29/06:20pm 13.3 10.7 7.7 69 2.8 SW 11 20 6 11 1030.0 - -
29/06:10pm 13.2 11.0 7.7 69 2.7 SW 9 15 5 8 1030.0 - -
29/06:00pm 13.3 10.7 7.9 70 2.7 SW 11 17 6 9 1030.0 - -
29/05:50pm 13.2 11.0 7.9 70 2.6 SW 9 13 5 7 1029.9 - -
29/05:40pm 13.1 10.5 7.8 70 2.6 WSW 11 15 6 8 1029.8 - -
29/05:30pm 12.9 10.3 7.6 70 2.6 SW 11 15 6 8 1029.7 - -
29/05:20pm 13.0 9.6 7.7 70 2.6 SW 15 19 8 10 1029.6 - -
29/05:10pm 13.1 9.7 7.8 70 2.6 SW 15 20 8 11 1029.7 - -
29/05:00pm 13.0 10.4 7.9 71 2.5 SSW 11 17 6 9 1029.7 - -
29/04:50pm 13.0 10.8 7.8 70 2.6 SW 9 13 5 7 1029.7 - -
29/04:40pm 13.1 10.5 7.8 70 2.6 SW 11 15 6 8 1029.7 - -
29/04:30pm 13.1 10.1 7.8 70 2.6 SW 13 17 7 9 1029.6 - -
29/04:20pm 13.2 10.2 7.8 70 2.7 SSW 13 15 7 8 1029.8 - -
29/04:10pm 13.2 10.2 7.8 70 2.7 SSW 13 19 7 10 1029.7 - -
29/04:00pm 13.3 10.3 7.8 69 2.7 SSW 13 19 7 10 1029.8 - -
29/03:50pm 13.4 10.1 8.0 70 2.7 SSW 15 20 8 11 1029.9 - -
29/03:40pm 13.5 10.2 8.1 70 2.7 SW 15 19 8 10 1029.8 - -
29/03:30pm 13.6 10.3 8.2 70 2.7 SW 15 22 8 12 1029.9 - -
29/03:20pm 13.5 10.3 8.3 71 2.6 SW 15 20 8 11 1029.8 - -
29/03:10pm 13.5 10.6 8.2 70 2.6 SW 13 17 7 9 1029.8 - -
29/03:00pm 13.4 10.9 8.1 70 2.6 SW 11 17 6 9 1029.8 - -
29/02:50pm 13.4 10.5 8.0 70 2.7 SW 13 15 7 8 1029.7 - -
29/02:40pm 13.5 11.0 8.0 69 2.7 SW 11 15 6 8 1029.8 - -
29/02:30pm 13.6 10.6 7.9 68 2.8 SW 13 17 7 9 1029.9 - -
29/02:20pm 13.7 10.4 8.0 68 2.8 SW 15 19 8 10 1029.9 - -
29/02:10pm 13.6 10.7 8.2 70 2.7 SW 13 19 7 10 1029.9 - -
29/02:00pm 13.5 10.6 8.2 70 2.6 SW 13 19 7 10 1029.8 - -
29/01:50pm 13.8 11.7 8.4 70 2.7 WSW 9 13 5 7 1029.8 - -
29/01:40pm 13.9 11.8 8.4 69 2.8 WSW 9 13 5 7 1029.8 - -
29/01:30pm 13.9 11.4 8.3 69 2.8 WSW 11 15 6 8 1029.9 - -
29/01:20pm 13.8 11.3 8.0 68 2.9 WSW 11 15 6 8 1029.9 - -
29/01:10pm 13.9 11.4 8.0 67 2.9 WSW 11 15 6 8 1029.9 - -
29/01:00pm 13.8 11.2 7.8 67 3.0 WSW 11 15 6 8 1030.0 - -
29/12:50pm 13.9 11.3 7.6 66 3.1 WSW 11 15 6 8 1030.0 - -
29/12:30pm 14.0 11.5 8.0 67 3.0 WSW 11 15 6 8 1030.2 - -
29/12:20pm 14.0 11.4 7.8 66 3.1 WSW 11 15 6 8 1030.3 - -
29/12:10pm 14.1 11.5 7.8 66 3.1 WSW 11 15 6 8 1030.5 - -
29/12:00pm 14.1 11.6 8.0 66 3.0 WSW 11 15 6 8 1030.6 - -
29/11:50am 14.2 12.1 8.2 67 3.0 WSW 9 15 5 8 1030.7 - -
29/11:40am 14.2 11.7 8.4 68 2.9 WSW 11 15 6 8 1030.9 - -
29/11:30am 14.4 11.6 8.5 67 3.0 WSW 13 17 7 9 1031.0 - -
29/11:20am 14.5 11.3 8.5 67 3.0 W 15 19 8 10 1031.2 - -
29/11:10am 14.4 11.2 8.6 68 2.9 W 15 19 8 10 1031.3 - -
29/11:00am 14.5 11.0 8.7 68 2.9 W 17 20 9 11 1031.4 - -
29/10:50am 14.5 11.4 8.8 68 2.9 W 15 19 8 10 1031.5 - -
29/10:40am 14.6 11.5 8.8 68 2.9 W 15 20 8 11 1031.6 - -
29/10:30am 14.6 11.1 8.8 68 2.9 W 17 22 9 12 1031.7 - -
29/10:20am 14.7 11.2 8.7 67 3.0 W 17 20 9 11 1031.8 - -
29/10:10am 14.6 11.0 8.5 67 3.1 W 17 20 9 11 1032.0 - -
29/10:00am 14.5 10.9 8.4 67 3.1 W 17 22 9 12 1032.1 - -
29/09:50am 14.4 11.6 8.5 67 3.0 WSW 13 19 7 10 1032.2 - -
29/09:40am 14.3 11.1 8.6 68 2.9 W 15 19 8 10 1032.3 - -

Other Formats:

Comma delimited format used in spreadsheet applications
http://www.bom.gov.au/fwo/IDV60801/IDV60801.55039.axf

JavaScript Object Notation format (JSON) in row-major order
http://www.bom.gov.au/fwo/IDV60801/IDV60801.55039.json